KSFB/SFB METAR and TAF weather

Enter ICAO airport designator
Station Type Date Time Source
KSFB METAR 2019/08/18 18:53 UTC NOAA

KSFB 181853Z 24008KT 10SM FEW050 33/20 A3008 RMK AO2 SLP186 T03280200


Station Type Date Time Source
KSFB Decoded METAR 2019/08/18 18:53 UTC NOAA

Station name not available
Aug 18, 2019 - 02:53 PM EDT / 2019.08.18 1853 UTC
Wind: from the WSW (240 degrees) at 9 MPH (8 KT):0
Visibility: 10 mile(s):0
Sky conditions: mostly clear
Temperature: 91.0 F (32.8 C)
Heat index: 94.6 F (34.8 C):1
Dew Point: 68.0 F (20.0 C)
Relative Humidity: 46%
Pressure (altimeter): 30.08 in. Hg (1018 hPa)
ob: KSFB 181853Z 24008KT 10SM FEW050 33/20 A3008 RMK AO2 SLP186 T03280200
cycle: 19

Station Type Date Time Source
KSFB TAF 2019/08/18 18:24 UTC NOAA

TAF KSFB 181722Z 1818/1918 24007KT P6SM FEW040 FEW110 BKN200
FM182000 21008KT P6SM VCTS SCT040CB SCT060 BKN250
FM190100 VRB03KT P6SM FEW035 SCT100 BKN250
FM191500 14006KT P6SM FEW030 BKN250

Example: see airport list